Main page
Satellite images 15-day forecastsClimateMarine weather Cyclones Lightning AirportsFAQ Newsletter About
Weather : Europe Africa North America South America Asia Australia-Oceania Others
Languages Contact

Podgorica, Montenegro

latitude: 42-26N, longitude: 019-17E, elevation: 53 m


METAR: LYPG 200300Z VRB02KT CAVOK 11/07 Q1023 NOSIG
TAF: LYPG 192300Z 2000/2024 36005KT CAVOK TX25/2013Z TN11/2005Z

Time: 06:18 (04:18 UTC)

Current weather observation

The report was made 01 hour and 18 minutes ago, at 03:00 UTC  
Wind 02 kt from variable directions
Temperature 11°C
Humidity 76%
Pressure 1023 hPa
Visibility 10 km or more
no clouds below 1500 m and no cumulonimbus

Change units

Forecast

The report was made 05 hours and 18 minutes ago, at 23:00 UTC  
Forecast valid from 20 at 00 UTC to 20 at 24 UTC
Wind 05 kt from the North
Visibility 10 km or more
no clouds below 1500 m and no cumulonimbus
The information on this site is subject to a disclaimer
Weather : Europe Africa North America South America Asia Australia-Oceania Others
Satellite images 15-day forecastsClimateMarine weather Cyclones Lightning AirportsFAQ Languages Contact Newsletter About